createdAt,value
2018-11-10T00:00:40.441Z,62.80
2018-11-10T00:05:43.949Z,59.83
2018-11-10T00:10:47.583Z,57.80
2018-11-10T00:15:53.166Z,58.70
2018-11-10T00:20:56.755Z,55.63
2018-11-10T00:26:00.299Z,58.53
2018-11-10T00:31:03.874Z,58.50
2018-11-10T00:36:07.757Z,56.80
2018-11-10T00:41:11.335Z,57.83
2018-11-10T00:46:14.885Z,59.37
2018-11-10T00:51:18.417Z,56.90
2018-11-10T00:56:22.120Z,57.10
2018-11-10T01:01:25.715Z,56.77
2018-11-10T01:06:29.145Z,60.20
2018-11-10T01:11:32.597Z,58.27
2018-11-10T01:16:36.154Z,58.27
2018-11-10T01:21:39.810Z,58.47
2018-11-10T01:26:43.466Z,59.33
2018-11-10T01:31:46.950Z,60.37
2018-11-10T01:36:50.959Z,61.40
2018-11-10T01:41:55.590Z,60.57
2018-11-10T01:46:59.200Z,59.50
2018-11-10T01:52:02.835Z,60.57
2018-11-10T01:57:06.403Z,61.93
2018-11-10T02:02:09.949Z,62.70
2018-11-10T02:07:13.617Z,59.73
2018-11-10T02:12:17.371Z,60.80
2018-11-10T02:17:20.910Z,60.30
2018-11-10T02:22:24.572Z,58.87
2018-11-10T02:27:28.635Z,56.10
2018-11-10T02:32:32.257Z,54.93
2018-11-10T02:37:36.274Z,51.77
2018-11-10T02:42:39.738Z,57.10
2018-11-10T02:47:44.134Z,53.80
2018-11-10T02:52:56.144Z,52.57
2018-11-10T02:57:59.601Z,55.57
2018-11-10T03:03:03.213Z,51.53
2018-11-10T03:08:06.701Z,51.03
2018-11-10T03:13:10.250Z,50.83
2018-11-10T03:18:13.854Z,48.87
2018-11-10T03:23:17.460Z,46.73
2018-11-10T03:28:21.246Z,47.30
2018-11-10T03:33:24.812Z,48.80
2018-11-10T03:38:28.343Z,47.23
2018-11-10T03:43:33.978Z,46.70
2018-11-10T03:48:37.797Z,45.40
2018-11-10T03:53:41.545Z,43.63
2018-11-10T03:58:44.989Z,42.77
2018-11-10T04:03:48.515Z,42.93
2018-11-10T04:08:52.346Z,42.30
2018-11-10T04:13:55.744Z,40.10
2018-11-10T04:18:59.201Z,41.57
2018-11-10T04:24:02.699Z,41.37
2018-11-10T04:29:06.347Z,39.37
2018-11-10T04:34:09.945Z,39.00
2018-11-10T04:39:13.453Z,38.67
2018-11-10T04:44:16.886Z,38.93
2018-11-10T04:49:20.304Z,40.50
2018-11-10T04:54:23.802Z,39.70
2018-11-10T04:59:27.281Z,38.40
2018-11-10T05:04:31.151Z,38.93
2018-11-10T05:09:34.845Z,38.60
2018-11-10T05:14:38.339Z,38.53
2018-11-10T05:19:41.830Z,38.03
2018-11-10T05:24:45.310Z,38.27
2018-11-10T05:29:48.730Z,36.07
2018-11-10T05:34:52.331Z,35.63
2018-11-10T05:39:55.868Z,36.53
2018-11-10T05:44:59.444Z,35.83
2018-11-10T05:50:03.325Z,35.57
2018-11-10T05:55:07.597Z,35.87
2018-11-10T06:00:13.207Z,37.37
2018-11-10T06:05:16.783Z,36.37
2018-11-10T06:10:20.673Z,35.00
2018-11-10T06:15:24.128Z,36.33
2018-11-10T06:20:27.641Z,35.50
2018-11-10T06:25:31.095Z,35.77
2018-11-10T06:30:34.650Z,36.60
2018-11-10T06:35:38.141Z,37.33
2018-11-10T06:40:41.651Z,39.43
2018-11-10T06:45:45.512Z,39.27
2018-11-10T06:50:48.990Z,39.83
2018-11-10T06:55:52.413Z,36.63
2018-11-10T07:00:55.909Z,39.30
2018-11-10T07:05:59.428Z,38.10
2018-11-10T07:11:02.964Z,36.97
2018-11-10T07:16:06.463Z,37.30
2018-11-10T07:21:09.900Z,37.47
2018-11-10T07:26:13.468Z,34.63
2018-11-10T07:31:17.068Z,37.27
2018-11-10T07:36:20.753Z,35.30
2018-11-10T07:41:24.238Z,34.07
2018-11-10T07:46:27.842Z,34.47
2018-11-10T07:51:32.086Z,31.43
2018-11-10T07:56:35.915Z,31.47
2018-11-10T08:01:39.600Z,31.70
2018-11-10T08:06:43.121Z,30.20
2018-11-10T08:11:47.715Z,28.60
2018-11-10T08:16:51.400Z,27.40
2018-11-10T08:21:54.969Z,27.70
2018-11-10T08:26:58.549Z,27.73
2018-11-10T08:32:02.109Z,26.10
2018-11-10T08:37:06.086Z,26.87
2018-11-10T08:42:10.645Z,23.97
2018-11-10T08:47:14.133Z,25.57
2018-11-10T08:52:17.685Z,24.10
2018-11-10T08:57:21.210Z,24.67
2018-11-10T09:02:24.676Z,23.33
2018-11-10T09:07:28.234Z,24.10
2018-11-10T09:12:31.727Z,23.50
2018-11-10T09:17:35.267Z,23.83
2018-11-10T09:22:38.979Z,23.57
2018-11-10T09:27:42.725Z,22.93
2018-11-10T09:32:46.237Z,22.87
2018-11-10T09:37:50.005Z,20.90
2018-11-10T09:42:53.615Z,19.80
2018-11-10T09:47:57.110Z,19.20
2018-11-10T09:53:00.595Z,18.30
2018-11-10T09:58:04.081Z,19.40
2018-11-10T10:03:07.684Z,18.80
2018-11-10T10:08:11.206Z,18.13
2018-11-10T10:13:14.876Z,17.80
2018-11-10T10:18:18.403Z,17.63
2018-11-10T10:23:22.260Z,16.13
2018-11-10T10:28:25.810Z,15.80
2018-11-10T10:33:29.347Z,14.97
2018-11-10T10:38:33.115Z,13.90
2018-11-10T10:43:36.980Z,13.43
2018-11-10T10:48:41.236Z,13.57
2018-11-10T10:53:44.755Z,13.00
2018-11-10T10:58:48.213Z,12.70
2018-11-10T11:03:57.395Z,13.17
2018-11-10T11:09:00.985Z,12.53
2018-11-10T11:14:04.595Z,11.63
2018-11-10T11:19:08.105Z,11.00
2018-11-10T11:24:11.568Z,10.37
2018-11-10T11:29:15.084Z,10.70
2018-11-10T11:34:18.568Z,9.77
2018-11-10T11:39:22.382Z,9.80
2018-11-10T11:44:25.869Z,9.00
2018-11-10T11:49:29.463Z,9.43
2018-11-10T11:54:33.007Z,9.40
2018-11-10T11:59:37.020Z,8.30
2018-11-10T12:04:40.908Z,9.17
2018-11-10T12:09:48.293Z,9.03
2018-11-10T12:14:52.298Z,8.57
2018-11-10T12:19:55.815Z,8.90
2018-11-10T12:24:59.324Z,8.80
2018-11-10T12:30:02.946Z,8.87
2018-11-10T12:35:07.885Z,9.73
2018-11-10T12:40:12.531Z,9.47
2018-11-10T12:45:16.288Z,9.53
2018-11-10T12:50:19.998Z,9.93
2018-11-10T12:55:23.468Z,10.03
2018-11-10T13:00:27.005Z,9.87
2018-11-10T13:05:30.516Z,9.97
2018-11-10T13:10:34.145Z,9.47
2018-11-10T13:15:38.157Z,10.33
2018-11-10T13:20:41.597Z,10.07
2018-11-10T13:25:45.117Z,10.60
2018-11-10T13:30:48.592Z,11.07
2018-11-10T13:35:52.403Z,11.13
2018-11-10T13:40:56.132Z,11.03
2018-11-10T13:45:59.601Z,11.43
2018-11-10T13:51:03.423Z,12.27
2018-11-10T13:56:06.731Z,12.03
2018-11-10T14:01:10.289Z,11.73
2018-11-10T14:06:13.856Z,11.10
2018-11-10T14:11:17.386Z,11.37
2018-11-10T14:16:20.808Z,12.97
2018-11-10T14:21:24.730Z,12.03
2018-11-10T14:26:28.424Z,10.83
2018-11-10T14:31:31.935Z,11.50
2018-11-10T14:36:35.461Z,11.47
2018-11-10T14:41:39.073Z,11.50
2018-11-10T14:46:42.507Z,11.87
2018-11-10T14:51:46.288Z,12.17
2018-11-10T14:56:50.005Z,13.10
2018-11-10T15:01:53.477Z,13.10
2018-11-10T15:06:56.939Z,13.87
2018-11-10T15:12:00.626Z,13.80
2018-11-10T15:17:04.450Z,14.40
2018-11-10T15:22:07.979Z,15.23
2018-11-10T15:27:11.612Z,14.87
2018-11-10T15:32:15.304Z,15.67
2018-11-10T15:37:18.824Z,15.63
2018-11-10T15:42:22.309Z,14.93
2018-11-10T15:47:25.920Z,15.30
2018-11-10T15:52:29.377Z,14.73
2018-11-10T15:57:33.069Z,14.77
2018-11-10T16:02:36.633Z,14.93
2018-11-10T16:07:40.130Z,14.57
2018-11-10T16:12:43.668Z,15.53
2018-11-10T16:17:47.150Z,14.63
2018-11-10T16:22:51.389Z,15.00
2018-11-10T16:27:54.913Z,15.67
2018-11-10T16:32:58.446Z,16.63
2018-11-10T16:38:01.961Z,15.43
2018-11-10T16:43:06.121Z,15.37
2018-11-10T16:48:09.670Z,16.93
2018-11-10T16:53:13.302Z,16.73
2018-11-10T16:58:18.095Z,16.67
2018-11-10T17:03:21.875Z,17.27
2018-11-10T17:08:25.467Z,17.67
2018-11-10T17:13:29.296Z,16.70
2018-11-10T17:18:32.744Z,17.23
2018-11-10T17:23:36.332Z,17.17
2018-11-10T17:28:39.969Z,17.87
2018-11-10T17:33:43.450Z,19.43
2018-11-10T17:38:47.042Z,18.00
2018-11-10T17:43:50.600Z,19.00
2018-11-10T17:48:54.025Z,18.40
2018-11-10T17:53:57.870Z,20.63
2018-11-10T17:59:01.644Z,20.43
2018-11-10T18:04:05.553Z,21.33
2018-11-10T18:09:10.360Z,20.27
2018-11-10T18:14:13.876Z,21.83
2018-11-10T18:19:17.652Z,19.83
2018-11-10T18:24:21.337Z,22.03
2018-11-10T18:29:25.052Z,20.83
2018-11-10T18:34:28.641Z,21.77
2018-11-10T18:39:32.222Z,20.87
2018-11-10T18:44:35.680Z,23.13
2018-11-10T18:49:39.275Z,22.20
2018-11-10T18:54:42.812Z,20.53
2018-11-10T18:59:46.300Z,22.07
2018-11-10T19:04:50.060Z,22.63
2018-11-10T19:09:53.685Z,22.23
2018-11-10T19:14:57.133Z,23.67
2018-11-10T19:20:00.687Z,21.57
2018-11-10T19:25:05.363Z,22.10
2018-11-10T19:30:15.693Z,22.37
2018-11-10T19:35:19.652Z,23.00
2018-11-10T19:40:23.224Z,20.30
2018-11-10T19:45:26.889Z,19.20
2018-11-10T19:50:30.479Z,18.60
2018-11-10T19:55:33.953Z,18.60
2018-11-10T20:00:37.534Z,19.00
2018-11-10T20:05:41.005Z,19.03
2018-11-10T20:10:44.575Z,19.85
2018-11-10T20:15:48.135Z,16.63
2018-11-10T20:20:51.752Z,17.90
2018-11-10T20:25:55.437Z,17.60
2018-11-10T20:30:58.993Z,15.93
2018-11-10T20:36:02.440Z,16.17
2018-11-10T20:41:06.964Z,14.53
2018-11-10T20:46:10.548Z,16.70
2018-11-10T20:51:14.475Z,14.63
2018-11-10T20:56:17.945Z,13.90
2018-11-10T21:01:21.417Z,13.77
2018-11-10T21:06:24.943Z,12.57
2018-11-10T21:11:28.585Z,13.27
2018-11-10T21:16:32.037Z,13.23
2018-11-10T21:21:35.806Z,12.43
2018-11-10T21:26:39.477Z,12.30
2018-11-10T21:31:43.031Z,11.47
2018-11-10T21:36:46.737Z,11.33
2018-11-10T21:41:50.259Z,11.93
2018-11-10T21:46:54.268Z,12.03
2018-11-10T21:51:57.795Z,11.13
2018-11-10T21:57:02.244Z,11.13
2018-11-10T22:02:06.103Z,11.80
2018-11-10T22:07:09.745Z,11.10
2018-11-10T22:12:13.360Z,11.57
2018-11-10T22:17:16.877Z,10.23
2018-11-10T22:22:20.478Z,11.10
2018-11-10T22:27:23.957Z,11.30
2018-11-10T22:32:27.655Z,10.40
2018-11-10T22:37:31.256Z,10.07
2018-11-10T22:42:35.695Z,10.30
2018-11-10T22:47:40.376Z,10.20
2018-11-10T22:52:44.117Z,9.97
2018-11-10T22:57:47.600Z,10.40
2018-11-10T23:02:52.746Z,10.80
2018-11-10T23:07:56.252Z,10.73
2018-11-10T23:12:59.794Z,10.00
2018-11-10T23:18:03.597Z,10.53
2018-11-10T23:23:07.142Z,10.33
2018-11-10T23:28:10.542Z,10.77
2018-11-10T23:33:14.077Z,10.90
2018-11-10T23:38:17.553Z,9.77
2018-11-10T23:43:21.088Z,10.37
2018-11-10T23:48:24.596Z,10.80
2018-11-10T23:53:28.144Z,10.07
2018-11-10T23:58:31.635Z,9.60
